createdAt,value
2018-12-16T00:00:31.588Z,32.85
2018-12-16T00:02:59.922Z,28.42
2018-12-16T00:05:28.238Z,35.03
2018-12-16T00:07:56.578Z,29.57
2018-12-16T00:10:24.915Z,33.20
2018-12-16T00:12:53.242Z,29.10
2018-12-16T00:15:21.562Z,28.50
2018-12-16T00:17:49.879Z,29.92
2018-12-16T00:20:18.541Z,35.00
2018-12-16T00:22:46.858Z,26.10
2018-12-16T00:25:15.349Z,27.35
2018-12-16T00:27:43.682Z,27.42
2018-12-16T00:30:12.064Z,27.85
2018-12-16T00:32:40.386Z,28.47
2018-12-16T00:35:08.809Z,32.45
2018-12-16T00:37:37.128Z,30.05
2018-12-16T00:40:06.039Z,27.40
2018-12-16T00:42:34.366Z,23.85
2018-12-16T00:45:02.744Z,26.55
2018-12-16T00:47:31.059Z,30.15
2018-12-16T00:49:59.413Z,28.73
2018-12-16T00:52:27.745Z,26.60
2018-12-16T00:54:56.092Z,31.90
2018-12-16T00:57:24.415Z,27.45
2018-12-16T00:59:52.756Z,25.40
2018-12-16T01:02:26.738Z,25.17
2018-12-16T01:04:55.368Z,26.15
2018-12-16T01:07:23.683Z,24.77
2018-12-16T01:09:52.006Z,24.20
2018-12-16T01:12:20.901Z,25.30
2018-12-16T01:14:49.253Z,24.40
2018-12-16T01:17:17.616Z,24.35
2018-12-16T01:19:45.959Z,22.65
2018-12-16T01:22:14.299Z,23.90
2018-12-16T01:24:42.641Z,22.48
2018-12-16T01:27:10.960Z,26.33
2018-12-16T01:29:39.282Z,25.32
2018-12-16T01:32:07.620Z,24.25
2018-12-16T01:34:35.955Z,23.22
2018-12-16T01:37:04.437Z,21.37
2018-12-16T01:39:32.939Z,27.15
2018-12-16T01:42:01.585Z,22.85
2018-12-16T01:44:30.160Z,22.07
2018-12-16T01:46:58.494Z,25.95
2018-12-16T01:49:26.817Z,25.85
2018-12-16T01:51:55.171Z,26.10
2018-12-16T01:54:23.523Z,21.55
2018-12-16T01:56:51.856Z,22.58
2018-12-16T01:59:20.187Z,23.30
2018-12-16T02:01:54.427Z,20.72
2018-12-16T02:04:23.011Z,24.87
2018-12-16T02:06:51.348Z,23.65
2018-12-16T02:09:19.688Z,24.15
2018-12-16T02:11:48.038Z,23.45
2018-12-16T02:14:16.376Z,28.62
2018-12-16T02:16:44.832Z,29.70
2018-12-16T02:19:13.165Z,24.87
2018-12-16T02:21:41.767Z,21.95
2018-12-16T02:24:10.081Z,23.20
2018-12-16T02:26:38.392Z,26.20
2018-12-16T02:29:06.748Z,23.57
2018-12-16T02:31:35.067Z,25.75
2018-12-16T02:34:03.411Z,21.50
2018-12-16T02:36:31.740Z,25.37
2018-12-16T02:39:00.072Z,28.95
2018-12-16T02:41:28.412Z,29.00
2018-12-16T02:43:56.737Z,27.13
2018-12-16T02:46:25.051Z,25.82
2018-12-16T02:48:53.428Z,24.07
2018-12-16T02:51:21.744Z,28.15
2018-12-16T02:53:50.093Z,28.15
2018-12-16T02:56:18.409Z,26.60
2018-12-16T02:58:47.476Z,24.80
2018-12-16T03:01:15.820Z,26.12
2018-12-16T03:03:44.371Z,24.52
2018-12-16T03:06:12.698Z,24.92
2018-12-16T03:08:41.257Z,23.47
2018-12-16T03:11:09.594Z,24.20
2018-12-16T03:13:37.944Z,23.80
2018-12-16T03:16:06.274Z,25.27
2018-12-16T03:18:34.636Z,25.62
2018-12-16T03:21:03.763Z,21.93
2018-12-16T03:23:32.134Z,24.35
2018-12-16T03:26:00.460Z,24.10
2018-12-16T03:28:28.792Z,23.80
2018-12-16T03:30:57.242Z,24.63
2018-12-16T03:33:25.806Z,25.72
2018-12-16T03:35:54.143Z,22.65
2018-12-16T03:38:22.458Z,24.12
2018-12-16T03:40:50.794Z,24.05
2018-12-16T03:43:19.224Z,22.00
2018-12-16T03:45:47.577Z,23.22
2018-12-16T03:48:15.899Z,23.10
2018-12-16T03:50:44.240Z,20.32
2018-12-16T03:53:19.551Z,22.05
2018-12-16T03:55:43.176Z,21.95
2018-12-16T03:58:11.508Z,24.00
2018-12-16T04:00:39.875Z,23.70
2018-12-16T04:03:08.172Z,21.05
2018-12-16T04:05:36.530Z,22.98
2018-12-16T04:08:04.867Z,20.85
2018-12-16T04:10:33.209Z,22.98
2018-12-16T04:13:01.787Z,25.75
2018-12-16T04:15:30.129Z,26.30
2018-12-16T04:17:58.724Z,25.80
2018-12-16T04:20:27.053Z,23.57
2018-12-16T04:22:55.398Z,23.35
2018-12-16T04:25:23.987Z,30.17
2018-12-16T04:27:52.316Z,27.82
2018-12-16T04:30:20.642Z,27.02
2018-12-16T04:32:49.212Z,28.80
2018-12-16T04:35:17.534Z,29.30
2018-12-16T04:37:48.647Z,27.95
2018-12-16T04:40:16.958Z,26.45
2018-12-16T04:42:45.288Z,26.17
2018-12-16T04:45:13.616Z,28.62
2018-12-16T04:47:41.938Z,28.47
2018-12-16T04:50:10.263Z,27.70
2018-12-16T04:52:38.607Z,29.20
2018-12-16T04:55:06.943Z,26.73
2018-12-16T04:57:35.260Z,30.55
2018-12-16T05:00:04.362Z,32.45
2018-12-16T05:02:32.678Z,34.10
2018-12-16T05:05:01.010Z,30.12
2018-12-16T05:07:29.323Z,30.40
2018-12-16T05:09:59.280Z,27.45
2018-12-16T05:12:27.822Z,29.18
2018-12-16T05:14:56.413Z,29.18
2018-12-16T05:17:24.743Z,31.30
2018-12-16T05:19:53.078Z,33.85
2018-12-16T05:22:21.403Z,30.85
2018-12-16T05:24:49.740Z,31.97
2018-12-16T05:27:18.054Z,31.65
2018-12-16T05:29:46.409Z,32.35
2018-12-16T05:32:14.727Z,37.63
2018-12-16T05:34:43.079Z,31.70
2018-12-16T05:37:11.414Z,38.30
2018-12-16T05:39:39.747Z,33.25
2018-12-16T05:42:08.091Z,37.15
2018-12-16T05:44:36.571Z,40.85
2018-12-16T05:47:04.931Z,38.17
2018-12-16T05:49:33.265Z,35.20
2018-12-16T05:52:01.616Z,36.23
2018-12-16T05:54:29.938Z,34.80
2018-12-16T05:56:58.335Z,35.40
2018-12-16T05:59:26.695Z,33.92
2018-12-16T06:01:55.063Z,34.85
2018-12-16T06:04:23.391Z,39.33
2018-12-16T06:06:51.728Z,31.87
2018-12-16T06:09:20.060Z,34.90
2018-12-16T06:11:48.390Z,38.13
2018-12-16T06:14:16.724Z,43.68
2018-12-16T06:16:45.081Z,42.27
2018-12-16T06:19:13.408Z,35.25
2018-12-16T06:21:41.750Z,38.48
2018-12-16T06:24:10.071Z,38.10
2018-12-16T06:26:38.406Z,38.95
2018-12-16T06:29:06.766Z,33.23
2018-12-16T06:31:35.334Z,34.95
2018-12-16T06:34:03.663Z,32.63
2018-12-16T06:36:31.988Z,34.40
2018-12-16T06:39:00.323Z,31.15
2018-12-16T06:41:28.646Z,37.03
2018-12-16T06:43:57.005Z,37.67
2018-12-16T06:46:25.315Z,45.33
2018-12-16T06:48:53.651Z,42.08
2018-12-16T06:51:21.988Z,35.00
2018-12-16T06:53:50.440Z,34.23
2018-12-16T06:56:19.580Z,39.08
2018-12-16T06:58:47.928Z,34.67
2018-12-16T07:01:16.255Z,35.68
2018-12-16T07:03:44.668Z,35.08
2018-12-16T07:06:13.000Z,33.63
2018-12-16T07:08:41.326Z,34.65
2018-12-16T07:11:09.669Z,34.83
2018-12-16T07:13:38.001Z,35.10
2018-12-16T07:16:06.625Z,33.90
2018-12-16T07:18:34.999Z,36.17
2018-12-16T07:21:03.550Z,31.00
2018-12-16T07:23:32.137Z,32.83
2018-12-16T07:26:00.707Z,33.67
2018-12-16T07:28:29.268Z,35.48
2018-12-16T07:30:57.611Z,35.43
2018-12-16T07:33:26.807Z,38.92
2018-12-16T07:35:55.263Z,36.40
2018-12-16T07:38:23.852Z,38.00
2018-12-16T07:40:52.427Z,36.48
2018-12-16T07:43:20.751Z,35.00
2018-12-16T07:45:49.327Z,37.93
2018-12-16T07:48:18.336Z,37.05
2018-12-16T07:50:46.833Z,37.45
2018-12-16T07:53:15.171Z,36.25
2018-12-16T07:55:43.675Z,35.95
2018-12-16T07:58:12.029Z,30.88
2018-12-16T08:00:40.403Z,36.85
2018-12-16T08:03:08.748Z,36.00
2018-12-16T08:05:37.139Z,32.00
2018-12-16T08:08:05.511Z,34.55
2018-12-16T08:10:33.853Z,31.52
2018-12-16T08:13:02.215Z,30.92
2018-12-16T08:15:30.580Z,30.88
2018-12-16T08:17:58.931Z,28.57
2018-12-16T08:20:27.256Z,29.30
2018-12-16T08:22:55.617Z,31.62
2018-12-16T08:25:23.957Z,29.00
2018-12-16T08:27:52.298Z,25.80
2018-12-16T08:30:20.692Z,32.10
2018-12-16T08:32:49.092Z,30.48
2018-12-16T08:35:17.503Z,30.80
2018-12-16T08:37:45.868Z,28.98
2018-12-16T08:40:14.189Z,30.45
2018-12-16T08:42:42.555Z,31.55
2018-12-16T08:45:10.915Z,34.43
2018-12-16T08:47:39.513Z,29.67
2018-12-16T08:50:07.912Z,28.47
2018-12-16T08:52:36.246Z,22.62
2018-12-16T08:55:04.626Z,28.75
2018-12-16T08:57:32.985Z,27.20
2018-12-16T09:00:01.313Z,23.42
2018-12-16T09:02:29.672Z,23.95
2018-12-16T09:04:58.007Z,26.40
2018-12-16T09:07:26.331Z,22.80
2018-12-16T09:09:54.697Z,22.58
2018-12-16T09:12:22.755Z,19.47
2018-12-16T09:14:51.085Z,20.95
2018-12-16T09:17:19.123Z,22.37
2018-12-16T09:19:47.180Z,19.87
2018-12-16T09:22:15.234Z,19.03
2018-12-16T09:24:43.285Z,21.13
2018-12-16T09:27:11.343Z,18.00
2018-12-16T09:29:39.478Z,19.70
2018-12-16T09:32:07.548Z,16.50
2018-12-16T09:34:35.619Z,20.80
2018-12-16T09:37:03.679Z,16.30
2018-12-16T09:39:31.722Z,19.57
2018-12-16T09:41:59.756Z,19.03
2018-12-16T09:44:27.819Z,17.90
2018-12-16T09:46:55.893Z,19.83
2018-12-16T09:49:23.978Z,21.20
2018-12-16T09:51:52.039Z,13.87
2018-12-16T09:54:20.079Z,11.73
2018-12-16T09:56:48.176Z,18.93
2018-12-16T09:59:16.265Z,14.93
2018-12-16T10:01:44.615Z,11.83
2018-12-16T10:04:12.779Z,17.27
2018-12-16T10:06:40.888Z,18.40
2018-12-16T10:09:08.958Z,14.10
2018-12-16T10:11:37.072Z,16.23
2018-12-16T10:14:05.201Z,14.23
2018-12-16T10:16:33.267Z,13.53
2018-12-16T10:19:01.554Z,14.57
2018-12-16T10:21:29.658Z,10.80
2018-12-16T10:23:57.695Z,13.03
2018-12-16T10:26:25.837Z,11.00
2018-12-16T10:28:53.859Z,14.67
2018-12-16T10:31:21.948Z,11.47
2018-12-16T10:33:50.026Z,13.70
2018-12-16T10:36:18.088Z,15.07
2018-12-16T10:38:46.145Z,14.83
2018-12-16T10:41:14.187Z,14.10
2018-12-16T10:43:42.246Z,12.63
2018-12-16T10:46:10.306Z,12.13
2018-12-16T10:48:38.381Z,13.63
2018-12-16T10:51:06.436Z,15.53
2018-12-16T10:53:34.489Z,16.40
2018-12-16T10:56:02.523Z,14.70
2018-12-16T10:58:30.596Z,16.20
2018-12-16T11:01:04.358Z,13.30
2018-12-16T11:03:32.427Z,16.50
2018-12-16T11:06:00.473Z,16.40
2018-12-16T11:08:28.705Z,20.43
2018-12-16T11:10:56.752Z,16.03
2018-12-16T11:13:24.827Z,20.00
2018-12-16T11:15:52.875Z,15.37
2018-12-16T11:18:20.920Z,13.43
2018-12-16T11:20:48.992Z,14.73
2018-12-16T11:23:17.033Z,13.47
2018-12-16T11:25:45.165Z,13.13
2018-12-16T11:28:13.834Z,13.23
2018-12-16T11:30:41.871Z,15.50
2018-12-16T11:33:09.902Z,12.53
2018-12-16T11:35:37.967Z,12.20
2018-12-16T11:38:06.019Z,12.20
2018-12-16T11:40:34.090Z,12.10
2018-12-16T11:43:02.131Z,14.97
2018-12-16T11:45:30.198Z,14.30
2018-12-16T11:47:58.319Z,14.83
2018-12-16T11:50:26.398Z,13.30
2018-12-16T11:52:54.447Z,12.83
2018-12-16T11:55:22.509Z,7.93
2018-12-16T11:57:50.556Z,11.23
2018-12-16T12:00:18.629Z,12.03
2018-12-16T12:02:46.680Z,10.77
2018-12-16T12:05:14.714Z,11.87
2018-12-16T12:07:42.814Z,8.67
2018-12-16T12:10:10.922Z,10.60
2018-12-16T12:12:38.979Z,8.40
2018-12-16T12:15:07.024Z,10.17
2018-12-16T12:17:35.071Z,8.67
2018-12-16T12:20:03.407Z,8.00
2018-12-16T12:22:31.498Z,7.70
2018-12-16T12:24:59.536Z,10.60
2018-12-16T12:27:27.605Z,12.37
2018-12-16T12:29:55.673Z,7.60
2018-12-16T12:32:23.739Z,8.63
2018-12-16T12:34:51.786Z,9.57
2018-12-16T12:37:20.093Z,9.13
2018-12-16T12:39:48.146Z,8.83
2018-12-16T12:42:16.233Z,9.13
2018-12-16T12:44:44.281Z,8.97
2018-12-16T12:47:12.341Z,10.00
2018-12-16T12:49:44.967Z,7.80
2018-12-16T12:52:10.513Z,9.00
2018-12-16T12:54:38.987Z,7.33
2018-12-16T12:57:07.044Z,6.90
2018-12-16T12:59:35.096Z,5.90
2018-12-16T13:02:03.673Z,6.47
2018-12-16T13:04:32.054Z,5.47
2018-12-16T13:07:00.105Z,5.70
2018-12-16T13:09:28.164Z,5.20
2018-12-16T13:11:57.094Z,4.90
2018-12-16T13:14:25.532Z,4.93
2018-12-16T13:16:53.588Z,4.80
2018-12-16T13:19:21.671Z,3.93
2018-12-16T13:21:49.738Z,3.67
2018-12-16T13:24:17.788Z,9.20
2018-12-16T13:26:46.184Z,5.63
2018-12-16T13:29:14.239Z,21.40
2018-12-16T13:31:42.278Z,28.00
2018-12-16T13:34:10.359Z,28.50
2018-12-16T13:36:38.424Z,31.53
2018-12-16T13:39:06.589Z,30.57
2018-12-16T13:41:34.627Z,29.80
2018-12-16T13:44:02.704Z,26.50
2018-12-16T13:46:30.766Z,18.63
2018-12-16T13:48:58.819Z,19.93
2018-12-16T13:51:26.896Z,24.50
2018-12-16T13:53:54.957Z,27.53
2018-12-16T13:56:23.008Z,32.87
2018-12-16T13:58:51.042Z,30.97
2018-12-16T14:01:19.113Z,33.50
2018-12-16T14:03:47.154Z,34.33
2018-12-16T14:06:15.220Z,35.20
2018-12-16T14:08:43.274Z,32.77
2018-12-16T14:11:11.393Z,30.00
2018-12-16T14:13:39.712Z,29.50
2018-12-16T14:16:07.841Z,31.47
2018-12-16T14:18:35.897Z,33.37
2018-12-16T14:21:03.946Z,30.27
2018-12-16T14:23:32.092Z,29.83
2018-12-16T14:26:00.131Z,31.80
2018-12-16T14:28:28.218Z,33.90
2018-12-16T14:30:56.262Z,29.90
2018-12-16T14:33:24.333Z,31.13
2018-12-16T14:35:52.407Z,37.40
2018-12-16T14:38:20.440Z,34.13
2018-12-16T14:40:48.513Z,42.30
2018-12-16T14:43:16.598Z,32.13
2018-12-16T14:45:44.656Z,34.57
2018-12-16T14:48:12.754Z,42.43
2018-12-16T14:50:40.798Z,35.63
2018-12-16T14:53:08.874Z,54.07
2018-12-16T14:55:37.373Z,53.60
2018-12-16T14:58:05.509Z,101.73
2018-12-16T15:00:33.799Z,88.47
2018-12-16T15:03:01.869Z,89.07
2018-12-16T15:05:29.961Z,42.90
2018-12-16T15:07:57.986Z,34.17
2018-12-16T15:10:26.086Z,37.43
2018-12-16T15:12:54.142Z,36.30
2018-12-16T15:15:22.430Z,38.93
2018-12-16T15:17:50.476Z,38.23
2018-12-16T15:20:18.587Z,37.17
2018-12-16T15:22:46.665Z,45.10
2018-12-16T15:25:14.731Z,38.63
2018-12-16T15:27:42.789Z,39.47
2018-12-16T15:30:10.924Z,41.20
2018-12-16T15:32:38.960Z,35.33
2018-12-16T15:35:07.027Z,39.77
2018-12-16T15:37:35.095Z,40.77
2018-12-16T15:40:03.519Z,38.43
2018-12-16T15:42:31.569Z,41.60
2018-12-16T15:44:59.632Z,36.20
2018-12-16T15:47:27.786Z,39.37
2018-12-16T15:49:55.882Z,37.63
2018-12-16T15:52:23.926Z,39.77
2018-12-16T15:54:52.022Z,43.03
2018-12-16T15:57:20.208Z,40.97
2018-12-16T15:59:48.277Z,43.20
2018-12-16T16:02:16.364Z,39.53
2018-12-16T16:04:44.420Z,49.47
2018-12-16T16:07:12.509Z,44.20
2018-12-16T16:09:40.591Z,40.57
2018-12-16T16:12:08.663Z,41.80
2018-12-16T16:14:36.709Z,41.47
2018-12-16T16:17:04.791Z,35.87
2018-12-16T16:19:32.827Z,33.67
2018-12-16T16:22:00.904Z,39.27
2018-12-16T16:24:28.980Z,38.37
2018-12-16T16:26:57.043Z,35.07
2018-12-16T16:29:25.130Z,39.43
2018-12-16T16:31:53.192Z,37.30
2018-12-16T16:34:21.246Z,38.80
2018-12-16T16:36:49.324Z,37.57
2018-12-16T16:39:17.404Z,40.13
2018-12-16T16:41:45.467Z,35.00
2018-12-16T16:44:14.406Z,39.60
2018-12-16T16:46:42.754Z,35.50
2018-12-16T16:49:10.835Z,35.07
2018-12-16T16:51:39.623Z,32.77
2018-12-16T16:54:07.889Z,31.03
2018-12-16T16:56:35.947Z,38.37
2018-12-16T16:59:04.035Z,39.03
2018-12-16T17:01:32.069Z,36.27
2018-12-16T17:04:00.243Z,41.83
2018-12-16T17:06:28.300Z,42.83
2018-12-16T17:08:56.411Z,46.13
2018-12-16T17:11:25.179Z,39.17
2018-12-16T17:13:53.823Z,41.70
2018-12-16T17:16:21.878Z,44.40
2018-12-16T17:18:50.367Z,40.60
2018-12-16T17:21:18.449Z,42.33
2018-12-16T17:23:46.507Z,47.00
2018-12-16T17:26:14.649Z,44.80
2018-12-16T17:28:42.763Z,41.17
2018-12-16T17:31:10.866Z,35.50
2018-12-16T17:33:38.906Z,35.20
2018-12-16T17:36:07.052Z,34.93
2018-12-16T17:38:35.121Z,39.40
2018-12-16T17:41:03.212Z,46.90
2018-12-16T17:43:31.255Z,40.07
2018-12-16T17:45:59.334Z,42.43
2018-12-16T17:48:27.438Z,42.97
2018-12-16T17:50:55.503Z,47.40
2018-12-16T17:53:23.542Z,39.87
2018-12-16T17:55:51.608Z,42.73
2018-12-16T17:58:19.652Z,42.07
2018-12-16T18:00:47.746Z,41.17
2018-12-16T18:03:15.810Z,36.90
2018-12-16T18:05:43.873Z,32.53
2018-12-16T18:08:11.949Z,36.07
2018-12-16T18:10:40.033Z,35.20
2018-12-16T18:13:08.411Z,37.17
2018-12-16T18:15:36.757Z,37.58
2018-12-16T18:18:05.108Z,38.53
2018-12-16T18:20:33.480Z,35.28
2018-12-16T18:23:01.806Z,35.03
2018-12-16T18:25:30.140Z,32.85
2018-12-16T18:27:58.501Z,39.08
2018-12-16T18:30:26.823Z,35.30
2018-12-16T18:32:55.722Z,37.50
2018-12-16T18:35:23.868Z,38.43
2018-12-16T18:37:52.468Z,40.73
2018-12-16T18:40:20.830Z,32.90
2018-12-16T18:42:49.208Z,41.28
2018-12-16T18:45:17.266Z,34.10
2018-12-16T18:47:45.644Z,35.00
2018-12-16T18:50:13.994Z,38.05
2018-12-16T18:52:42.357Z,36.63
2018-12-16T18:55:10.708Z,32.80
2018-12-16T18:57:38.808Z,37.33
2018-12-16T19:00:09.264Z,34.87
2018-12-16T19:02:37.602Z,34.08
2018-12-16T19:05:05.844Z,30.17
2018-12-16T19:07:34.234Z,34.10
2018-12-16T19:10:02.310Z,31.97
2018-12-16T19:12:30.351Z,30.07
2018-12-16T19:14:58.703Z,28.57
2018-12-16T19:17:26.743Z,29.53
2018-12-16T19:19:54.808Z,24.90
2018-12-16T19:22:22.859Z,24.53
2018-12-16T19:24:50.938Z,26.00
2018-12-16T19:27:19.707Z,25.03
2018-12-16T19:29:47.787Z,28.83
2018-12-16T19:32:15.870Z,20.37
2018-12-16T19:34:43.932Z,21.27
2018-12-16T19:37:11.980Z,17.57
2018-12-16T19:39:40.071Z,19.53
2018-12-16T19:42:08.163Z,19.07
2018-12-16T19:44:36.220Z,19.47
2018-12-16T19:47:04.291Z,18.97
2018-12-16T19:49:32.338Z,20.03
2018-12-16T19:52:00.412Z,23.97
2018-12-16T19:54:28.738Z,20.23
2018-12-16T19:56:56.897Z,32.10
2018-12-16T19:59:25.078Z,47.03
2018-12-16T20:01:53.201Z,38.00
2018-12-16T20:04:21.458Z,38.00
2018-12-16T20:06:49.549Z,38.50
2018-12-16T20:09:17.632Z,35.47
2018-12-16T20:11:45.813Z,34.50
2018-12-16T20:14:13.866Z,35.77
2018-12-16T20:16:42.619Z,32.20
2018-12-16T20:19:10.695Z,41.53
2018-12-16T20:21:40.302Z,31.00
2018-12-16T20:24:08.940Z,22.60
2018-12-16T20:26:37.627Z,26.33
2018-12-16T20:29:06.312Z,18.63
2018-12-16T20:31:34.767Z,17.63
2018-12-16T20:34:03.479Z,37.37
2018-12-16T20:36:31.516Z,25.23
2018-12-16T20:38:59.678Z,29.40
2018-12-16T20:41:28.662Z,32.53
2018-12-16T20:43:56.901Z,35.00
2018-12-16T20:46:24.967Z,35.63
2018-12-16T20:48:53.143Z,33.30
2018-12-16T20:51:21.209Z,26.27
2018-12-16T20:53:49.280Z,24.13
2018-12-16T20:56:17.675Z,18.17
2018-12-16T20:58:46.268Z,17.60
2018-12-16T21:01:14.375Z,23.00
2018-12-16T21:03:43.661Z,25.60
2018-12-16T21:06:11.831Z,17.70
2018-12-16T21:08:39.985Z,20.40
2018-12-16T21:11:13.513Z,19.50
2018-12-16T21:13:47.130Z,20.37
2018-12-16T21:16:21.106Z,20.07
2018-12-16T21:18:49.237Z,20.07
2018-12-16T21:21:17.344Z,21.57
2018-12-16T21:23:45.460Z,19.57
2018-12-16T21:26:13.595Z,20.03
2018-12-16T21:28:41.656Z,18.00
2018-12-16T21:31:09.712Z,19.00
2018-12-16T21:33:37.768Z,20.13
2018-12-16T21:36:05.884Z,17.10
2018-12-16T21:38:33.946Z,18.47
2018-12-16T21:41:02.120Z,33.17
2018-12-16T21:43:30.168Z,25.70
2018-12-16T21:45:58.279Z,23.83
2018-12-16T21:48:26.365Z,21.50
2018-12-16T21:50:54.948Z,26.03
2018-12-16T21:53:22.996Z,21.97
2018-12-16T21:55:51.555Z,20.87
2018-12-16T21:58:19.759Z,20.73
2018-12-16T22:00:48.438Z,18.43
2018-12-16T22:03:16.553Z,19.50
2018-12-16T22:05:44.692Z,19.77
2018-12-16T22:08:12.726Z,18.27
2018-12-16T22:10:40.812Z,18.53
2018-12-16T22:13:08.853Z,18.30
2018-12-16T22:15:36.906Z,19.40
2018-12-16T22:18:04.978Z,20.43
2018-12-16T22:20:33.019Z,19.90
2018-12-16T22:23:01.934Z,18.77
2018-12-16T22:25:30.500Z,21.03
2018-12-16T22:27:59.298Z,16.83
2018-12-16T22:30:27.855Z,16.37
2018-12-16T22:32:55.913Z,19.67
2018-12-16T22:35:23.963Z,20.53
2018-12-16T22:37:52.838Z,18.77
2018-12-16T22:40:20.893Z,18.53
2018-12-16T22:42:49.082Z,18.17
2018-12-16T22:45:17.133Z,17.43
2018-12-16T22:47:45.302Z,17.07
2018-12-16T22:50:13.422Z,18.50
2018-12-16T22:52:41.455Z,17.53
2018-12-16T22:55:09.508Z,19.03
2018-12-16T22:57:38.451Z,21.25
2018-12-16T23:00:08.729Z,18.80
2018-12-16T23:02:36.774Z,17.37
2018-12-16T23:05:05.495Z,16.03
2018-12-16T23:07:33.942Z,17.47
2018-12-16T23:10:02.055Z,20.63
2018-12-16T23:12:31.872Z,22.23
2018-12-16T23:14:59.932Z,15.83
2018-12-16T23:17:28.846Z,15.53
2018-12-16T23:20:02.527Z,18.17
2018-12-16T23:22:30.571Z,18.07
2018-12-16T23:24:58.895Z,19.50
2018-12-16T23:27:26.935Z,20.60
2018-12-16T23:29:54.999Z,19.60
2018-12-16T23:32:23.058Z,19.67
2018-12-16T23:34:51.108Z,19.87
2018-12-16T23:37:19.251Z,19.20
2018-12-16T23:39:47.309Z,16.97
2018-12-16T23:42:15.362Z,19.00
2018-12-16T23:44:43.425Z,18.20
2018-12-16T23:47:11.478Z,20.30
2018-12-16T23:49:39.638Z,19.13
2018-12-16T23:52:07.699Z,18.83
2018-12-16T23:54:35.765Z,23.13
2018-12-16T23:57:04.153Z,22.43
2018-12-16T23:59:33.012Z,21.63
